Time;durP1;ratioP1;P1;durP2;ratioP2;P2;SDS_P1;SDS_P2;PMS_P1;PMS_P2;Temp;Humidity;BMP_temperature;BMP_pressure;BME280_temperature;BME280_humidity;BME280_pressure;Samples;Min_cycle;Max_cycle;Signal;HPM_P1;HPM_P2
2021/11/18 00:01:51;;;;;;;34.83;11.23;;;5.80;99.90;;;;;;5139137;27;20206;-58
2021/11/18 00:04:21;;;;;;;29.57;11.40;;;5.80;99.90;;;;;;5149466;27;20208;-58
2021/11/18 00:06:50;;;;;;;26.80;11.60;;;5.70;99.90;;;;;;5148091;27;20215;-59
2021/11/18 00:09:21;;;;;;;30.93;11.30;;;5.70;99.90;;;;;;5150663;27;20221;-59
2021/11/18 00:11:51;;;;;;;34.63;11.20;;;5.60;99.90;;;;;;5149890;27;20292;-58
2021/11/18 00:14:20;;;;;;;24.20;11.00;;;5.60;99.90;;;;;;5152801;27;20189;-59
2021/11/18 00:16:49;;;;;;;31.93;11.20;;;5.50;99.90;;;;;;5134489;27;20185;-59
2021/11/18 00:19:19;;;;;;;30.93;10.43;;;5.50;99.90;;;;;;5164401;27;20275;-59
2021/11/18 00:21:50;;;;;;;33.50;11.10;;;5.40;99.90;;;;;;5150702;27;20229;-58
2021/11/18 00:24:21;;;;;;;28.40;10.47;;;5.40;99.90;;;;;;5151012;27;20272;-59
2021/11/18 00:26:54;;;;;;;35.90;12.03;;;5.40;99.90;;;;;;5151088;27;20185;-59
2021/11/18 00:29:23;;;;;;;30.57;10.60;;;5.30;99.90;;;;;;5150505;27;20201;-58
2021/11/18 00:31:52;;;;;;;32.70;11.30;;;5.30;99.90;;;;;;5153864;27;20257;-59
2021/11/18 00:34:21;;;;;;;30.73;11.40;;;5.30;99.90;;;;;;5153084;27;20202;-59
2021/11/18 00:36:52;;;;;;;30.63;11.23;;;5.40;99.90;;;;;;5125453;27;20285;-58
2021/11/18 00:39:22;;;;;;;34.20;11.67;;;5.40;99.90;;;;;;5153810;27;20220;-57
2021/11/18 00:41:52;;;;;;;30.47;11.17;;;5.30;99.90;;;;;;5150770;27;20281;-59
2021/11/18 00:44:22;;;;;;;33.20;12.07;;;5.30;99.90;;;;;;5152593;27;20229;-59
2021/11/18 00:46:51;;;;;;;25.80;11.30;;;5.20;99.90;;;;;;5145499;27;20193;-59
2021/11/18 00:49:19;;;;;;;29.57;11.40;;;5.20;99.90;;;;;;5147168;27;20213;-58
2021/11/18 00:51:48;;;;;;;33.83;11.63;;;5.10;99.90;;;;;;5148339;27;20224;-59
2021/11/18 00:54:17;;;;;;;28.50;11.50;;;5.10;99.90;;;;;;5151201;27;20224;-59
2021/11/18 00:56:46;;;;;;;32.93;11.23;;;5.00;99.90;;;;;;5145020;27;20224;-59
2021/11/18 00:59:19;;;;;;;30.27;11.23;;;5.00;99.90;;;;;;5126613;27;20185;-58
2021/11/18 01:01:50;;;;;;;31.30;11.10;;;5.00;99.90;;;;;;5147020;27;20195;-59
2021/11/18 01:04:21;;;;;;;30.40;11.97;;;4.90;99.90;;;;;;5130112;27;20207;-58
2021/11/18 01:06:50;;;;;;;29.90;11.40;;;4.90;99.90;;;;;;5149556;27;20247;-58
2021/11/18 01:09:18;;;;;;;36.40;11.47;;;4.90;99.90;;;;;;5145188;27;20738;-58
2021/11/18 01:11:47;;;;;;;32.53;11.67;;;4.90;99.90;;;;;;5156026;27;20235;-58
2021/11/18 01:14:20;;;;;;;35.27;12.57;;;4.90;99.90;;;;;;5128606;27;20197;-59
2021/11/18 01:16:50;;;;;;;31.37;11.77;;;4.80;99.90;;;;;;5138771;27;20189;-59
2021/11/18 01:19:19;;;;;;;30.83;10.93;;;4.80;99.90;;;;;;5149589;27;20198;-59
2021/11/18 01:21:50;;;;;;;36.10;11.57;;;4.80;99.90;;;;;;5113029;27;20189;-59
2021/11/18 01:24:19;;;;;;;43.03;12.00;;;4.80;99.90;;;;;;5132044;27;20651;-57
2021/11/18 01:26:48;;;;;;;39.30;12.13;;;4.70;99.90;;;;;;5150626;27;20407;-58
2021/11/18 01:29:16;;;;;;;30.30;10.63;;;4.60;99.90;;;;;;5149048;27;20205;-58
2021/11/18 01:31:46;;;;;;;30.23;11.87;;;4.60;99.90;;;;;;5149614;27;20177;-58
2021/11/18 01:34:15;;;;;;;32.03;11.77;;;4.60;99.90;;;;;;5156215;27;20196;-59
2021/11/18 01:36:44;;;;;;;30.43;11.53;;;4.60;99.90;;;;;;5150910;27;20254;-59
2021/11/18 01:39:12;;;;;;;27.53;11.90;;;4.60;99.90;;;;;;5142138;27;20196;-59
2021/11/18 01:41:42;;;;;;;32.77;12.43;;;4.60;99.90;;;;;;5134522;27;20608;-58
2021/11/18 01:44:14;;;;;;;31.50;12.47;;;4.70;99.90;;;;;;5147566;27;20236;-58
2021/11/18 01:46:46;;;;;;;40.77;13.00;;;4.70;99.90;;;;;;5161146;27;20201;-59
2021/11/18 01:49:15;;;;;;;42.80;12.93;;;4.70;99.90;;;;;;5130197;27;20217;-58
2021/11/18 01:51:46;;;;;;;27.60;12.73;;;4.70;99.90;;;;;;5154971;27;20218;-58
2021/11/18 01:54:20;;;;;;;34.00;12.33;;;4.70;99.90;;;;;;5151846;27;20666;-58
2021/11/18 01:56:50;;;;;;;40.50;13.20;;;4.60;99.90;;;;;;5157311;27;20205;-58
2021/11/18 01:59:22;;;;;;;32.00;12.80;;;4.50;99.90;;;;;;5140007;27;20178;-59
2021/11/18 02:01:55;;;;;;;33.77;13.57;;;4.50;99.90;;;;;;5127524;27;20276;-58
2021/11/18 02:04:28;;;;;;;36.70;13.80;;;4.50;99.90;;;;;;5133866;27;20182;-57
2021/11/18 02:07:01;;;;;;;21.87;11.67;;;4.40;99.90;;;;;;5158903;27;20224;-59
2021/11/18 02:09:37;;;;;;;36.27;13.37;;;4.30;99.90;;;;;;5151893;27;20212;-57
2021/11/18 02:12:08;;;;;;;36.47;13.87;;;4.30;99.90;;;;;;5153555;27;20201;-59
2021/11/18 02:14:38;;;;;;;36.93;13.57;;;4.20;99.90;;;;;;5153953;27;20625;-58
2021/11/18 02:17:10;;;;;;;33.73;13.67;;;4.30;99.90;;;;;;5134604;27;20277;-58
2021/11/18 02:19:43;;;;;;;34.93;13.37;;;4.30;99.90;;;;;;5153325;27;20640;-57
2021/11/18 02:22:13;;;;;;;27.43;13.03;;;4.30;99.90;;;;;;5161239;27;20197;-57
2021/11/18 02:24:47;;;;;;;35.43;13.73;;;4.30;99.90;;;;;;5160189;27;20196;-58
2021/11/18 02:27:18;;;;;;;26.43;13.53;;;4.30;99.90;;;;;;5144274;27;20189;-59
2021/11/18 02:29:49;;;;;;;31.80;13.60;;;4.30;99.90;;;;;;5153491;27;20296;-58
2021/11/18 02:32:20;;;;;;;29.60;13.60;;;4.30;99.90;;;;;;5152934;27;20193;-58
2021/11/18 02:34:51;;;;;;;33.37;13.33;;;4.30;99.90;;;;;;5152919;27;20188;-58
2021/11/18 02:37:22;;;;;;;27.03;13.70;;;4.30;99.90;;;;;;5154476;27;20193;-58
2021/11/18 02:39:51;;;;;;;38.23;15.07;;;4.20;99.90;;;;;;5150678;27;20268;-59
2021/11/18 02:42:21;;;;;;;35.57;14.43;;;4.10;99.90;;;;;;5145900;27;20633;-59
2021/11/18 02:44:50;;;;;;;40.97;15.10;;;4.10;99.90;;;;;;5149180;27;20277;-57
2021/11/18 02:47:19;;;;;;;40.43;17.03;;;4.00;99.90;;;;;;5149599;27;20549;-59
2021/11/18 02:49:51;;;;;;;38.83;15.17;;;4.10;99.90;;;;;;5150481;27;20673;-59
2021/11/18 02:52:27;;;;;;;41.23;13.90;;;4.20;99.90;;;;;;5155014;27;20212;-59
2021/11/18 02:54:57;;;;;;;35.93;15.07;;;4.20;99.90;;;;;;5134120;27;20244;-58
2021/11/18 02:57:26;;;;;;;35.90;14.83;;;4.10;99.90;;;;;;5147890;27;20272;-56
2021/11/18 02:59:55;;;;;;;40.83;15.87;;;4.00;99.90;;;;;;5153710;27;20280;-58
2021/11/18 03:02:24;;;;;;;29.03;14.50;;;4.00;99.90;;;;;;5150894;27;20198;-59
2021/11/18 03:04:54;;;;;;;34.33;15.00;;;3.90;99.90;;;;;;5148548;27;20224;-59
2021/11/18 03:07:23;;;;;;;35.60;14.90;;;3.90;99.90;;;;;;5152920;27;20192;-59
2021/11/18 03:09:51;;;;;;;36.07;14.60;;;3.90;99.90;;;;;;5151818;27;20223;-59
2021/11/18 03:12:21;;;;;;;40.17;14.57;;;3.90;99.90;;;;;;5150691;27;20181;-58
2021/11/18 03:14:50;;;;;;;40.60;15.53;;;3.90;99.90;;;;;;5151167;27;20197;-59
2021/11/18 03:17:19;;;;;;;46.10;15.90;;;3.90;99.90;;;;;;5149835;27;20238;-58
2021/11/18 03:19:48;;;;;;;43.20;16.27;;;3.80;99.90;;;;;;5155541;27;20225;-59
2021/11/18 03:22:16;;;;;;;42.83;17.07;;;3.80;99.90;;;;;;5149890;27;20264;-59
2021/11/18 03:24:46;;;;;;;39.73;17.00;;;3.80;99.90;;;;;;5156999;27;20655;-59
2021/11/18 03:27:15;;;;;;;40.67;16.93;;;3.80;99.90;;;;;;5152836;27;20686;-59
2021/11/18 03:29:43;;;;;;;47.87;17.83;;;3.80;99.90;;;;;;5150565;27;20675;-59
2021/11/18 03:32:12;;;;;;;38.47;17.83;;;3.90;99.90;;;;;;5159620;27;20723;-59
2021/11/18 03:34:40;;;;;;;49.33;18.00;;;4.00;99.90;;;;;;5151878;27;20198;-59
2021/11/18 03:37:11;;;;;;;48.73;17.70;;;4.00;99.90;;;;;;5147603;27;20189;-59
2021/11/18 03:39:39;;;;;;;52.57;18.77;;;4.00;99.90;;;;;;5149627;27;20194;-59
2021/11/18 03:42:12;;;;;;;37.13;17.03;;;4.00;99.90;;;;;;5150735;27;20205;-58
2021/11/18 03:44:41;;;;;;;59.57;19.20;;;4.00;99.90;;;;;;5136139;27;20307;-58
2021/11/18 03:47:13;;;;;;;43.23;19.23;;;4.00;99.90;;;;;;5150729;27;20236;-59
2021/11/18 03:49:42;;;;;;;56.77;18.60;;;4.00;99.90;;;;;;5149917;27;20279;-59
2021/11/18 03:52:13;;;;;;;51.70;19.20;;;4.00;99.90;;;;;;5129941;27;20194;-59
2021/11/18 03:54:43;;;;;;;43.57;19.57;;;4.00;99.90;;;;;;5147380;27;20260;-59
2021/11/18 03:57:14;;;;;;;52.03;18.40;;;4.10;99.90;;;;;;5149954;27;20221;-59
2021/11/18 03:59:45;;;;;;;51.40;17.33;;;4.10;99.90;;;;;;5151962;27;20800;-59
2021/11/18 04:02:14;;;;;;;48.83;17.93;;;4.00;99.90;;;;;;5149127;27;20197;-59
2021/11/18 04:04:44;;;;;;;43.97;18.07;;;4.00;99.90;;;;;;5153051;27;20209;-60
2021/11/18 04:07:14;;;;;;;49.23;18.57;;;4.00;99.90;;;;;;5149549;27;20276;-59
2021/11/18 04:09:44;;;;;;;52.70;19.27;;;3.90;99.90;;;;;;5147821;27;20257;-59
2021/11/18 04:12:15;;;;;;;40.87;18.20;;;3.90;99.90;;;;;;5150026;27;20803;-58
2021/11/18 04:14:44;;;;;;;47.37;18.23;;;3.80;99.90;;;;;;5128695;27;20189;-56
2021/11/18 04:17:14;;;;;;;59.83;20.17;;;3.80;99.90;;;;;;5134500;27;20673;-58
2021/11/18 04:19:42;;;;;;;48.30;19.70;;;3.90;99.90;;;;;;5150806;27;20222;-59
2021/11/18 04:22:11;;;;;;;42.87;18.20;;;3.90;99.90;;;;;;5145998;27;20190;-59
2021/11/18 04:24:42;;;;;;;45.40;17.93;;;3.90;99.90;;;;;;5152747;27;20543;-59
2021/11/18 04:27:13;;;;;;;48.50;18.17;;;3.90;99.90;;;;;;5150552;27;20193;-59
2021/11/18 04:29:41;;;;;;;55.20;19.07;;;4.00;99.90;;;;;;5156178;27;20214;-59
2021/11/18 04:32:13;;;;;;;57.90;19.23;;;4.00;99.90;;;;;;5146134;27;20570;-58
2021/11/18 04:34:42;;;;;;;45.93;19.03;;;4.00;99.90;;;;;;5149666;27;20213;-57
2021/11/18 04:37:11;;;;;;;51.40;18.57;;;4.00;99.90;;;;;;5149268;27;20200;-59
2021/11/18 04:39:40;;;;;;;45.30;18.53;;;4.00;99.90;;;;;;5143318;27;20212;-59
2021/11/18 04:42:10;;;;;;;47.23;18.90;;;4.00;99.90;;;;;;5150151;27;20554;-59
2021/11/18 04:44:40;;;;;;;48.37;19.63;;;4.00;99.90;;;;;;5144737;27;20578;-58
2021/11/18 04:47:12;;;;;;;49.20;18.40;;;4.10;99.90;;;;;;5140611;27;20738;-58
2021/11/18 04:49:42;;;;;;;51.73;18.27;;;4.10;99.90;;;;;;5141133;27;20297;-58
2021/11/18 04:52:11;;;;;;;49.57;17.97;;;4.10;99.90;;;;;;5158579;27;20559;-59
2021/11/18 04:54:40;;;;;;;49.80;17.23;;;4.00;99.90;;;;;;5129786;27;20665;-59
2021/11/18 04:57:09;;;;;;;48.53;18.43;;;4.00;99.90;;;;;;5154174;27;20212;-58
2021/11/18 04:59:38;;;;;;;49.97;18.93;;;4.00;99.90;;;;;;5149562;27;20722;-58
2021/11/18 05:02:08;;;;;;;49.60;18.87;;;4.00;99.90;;;;;;5153531;27;20213;-58
2021/11/18 05:04:38;;;;;;;59.40;18.47;;;4.10;99.90;;;;;;5153287;27;20189;-57
2021/11/18 05:07:06;;;;;;;43.83;18.90;;;4.10;99.90;;;;;;5149682;27;20220;-59
2021/11/18 05:09:34;;;;;;;49.97;19.03;;;4.10;99.90;;;;;;5150351;27;21139;-59
2021/11/18 05:12:04;;;;;;;49.43;18.70;;;4.20;99.90;;;;;;5127208;27;20647;-59
2021/11/18 05:14:32;;;;;;;54.37;19.43;;;4.20;99.90;;;;;;5150459;27;20664;-58
2021/11/18 05:17:01;;;;;;;56.70;19.27;;;4.20;99.90;;;;;;5155456;27;20673;-59
2021/11/18 05:19:32;;;;;;;49.73;20.00;;;4.20;99.90;;;;;;5152321;27;20712;-58
2021/11/18 05:22:03;;;;;;;48.57;19.30;;;4.20;99.90;;;;;;5127613;27;20242;-58
2021/11/18 05:24:34;;;;;;;54.07;18.37;;;4.20;99.90;;;;;;5152208;27;20228;-58
2021/11/18 05:27:03;;;;;;;53.27;20.30;;;4.20;99.90;;;;;;5154145;27;20225;-59
2021/11/18 05:29:31;;;;;;;47.77;18.73;;;4.30;99.90;;;;;;5151297;27;20207;-59
2021/11/18 05:32:00;;;;;;;51.10;19.27;;;4.30;99.90;;;;;;5151880;27;20224;-58
2021/11/18 05:34:28;;;;;;;54.30;19.60;;;4.30;99.90;;;;;;5146155;27;20269;-59
2021/11/18 05:36:58;;;;;;;45.40;18.90;;;4.30;99.90;;;;;;5146352;27;20204;-59
2021/11/18 05:39:27;;;;;;;60.27;18.33;;;4.30;99.90;;;;;;5149180;27;20850;-58
2021/11/18 05:41:55;;;;;;;56.47;18.80;;;4.30;99.90;;;;;;5144634;27;20544;-58
2021/11/18 05:44:25;;;;;;;45.10;18.70;;;4.40;99.90;;;;;;5129572;27;20721;-59
2021/11/18 05:46:53;;;;;;;49.07;17.83;;;4.40;99.90;;;;;;5152581;27;20193;-58
2021/11/18 05:49:22;;;;;;;51.43;17.80;;;4.40;99.90;;;;;;5144642;27;20220;-59
2021/11/18 05:51:51;;;;;;;44.53;16.63;;;4.40;99.90;;;;;;5145313;27;20682;-59
2021/11/18 05:54:22;;;;;;;48.27;17.20;;;4.40;99.90;;;;;;5111342;27;20201;-59
2021/11/18 05:56:50;;;;;;;49.63;16.70;;;4.40;99.90;;;;;;5145635;27;20246;-59
2021/11/18 05:59:19;;;;;;;37.90;16.83;;;4.40;99.90;;;;;;5131097;27;20191;-59
2021/11/18 06:01:47;;;;;;;53.03;17.20;;;4.50;99.90;;;;;;5152869;27;20683;-58
2021/11/18 06:04:16;;;;;;;46.03;17.20;;;4.40;99.90;;;;;;5128528;27;20192;-59
2021/11/18 06:06:45;;;;;;;46.40;17.43;;;4.40;99.90;;;;;;5127975;27;20202;-59
2021/11/18 06:09:16;;;;;;;46.30;17.23;;;4.40;99.90;;;;;;5128793;27;20273;-59
2021/11/18 06:11:49;;;;;;;43.23;16.87;;;4.50;99.90;;;;;;5141837;27;20294;-58
2021/11/18 06:14:18;;;;;;;51.30;19.13;;;4.40;99.90;;;;;;5149297;27;20224;-59
2021/11/18 06:16:46;;;;;;;47.07;17.97;;;4.40;99.90;;;;;;5143170;27;20244;-58
2021/11/18 06:19:15;;;;;;;56.77;18.97;;;4.40;99.90;;;;;;5147559;27;20200;-59
2021/11/18 06:21:46;;;;;;;49.40;18.13;;;4.30;99.90;;;;;;5124503;27;20273;-58
2021/11/18 06:24:16;;;;;;;46.97;18.50;;;4.30;99.90;;;;;;5149886;27;20225;-59
2021/11/18 06:26:46;;;;;;;49.73;19.17;;;4.20;99.90;;;;;;5126769;27;20624;-59
2021/11/18 06:29:20;;;;;;;55.70;18.50;;;4.20;99.90;;;;;;5146476;27;20270;-58
2021/11/18 06:31:48;;;;;;;45.93;18.73;;;4.20;99.90;;;;;;5145878;27;20217;-58
2021/11/18 06:34:17;;;;;;;42.50;19.07;;;4.20;99.90;;;;;;5123986;27;20201;-58
2021/11/18 06:36:47;;;;;;;49.37;18.63;;;4.20;99.90;;;;;;5147943;27;20307;-57
2021/11/18 06:39:16;;;;;;;49.47;19.23;;;4.20;99.90;;;;;;5132471;27;20633;-58
2021/11/18 06:41:48;;;;;;;62.70;21.03;;;4.10;99.90;;;;;;5146760;27;20918;-58
2021/11/18 06:44:17;;;;;;;48.90;19.60;;;4.10;99.90;;;;;;5149721;27;20281;-58
2021/11/18 06:46:46;;;;;;;41.60;19.37;;;4.10;99.90;;;;;;5132311;27;20727;-59
2021/11/18 06:49:15;;;;;;;53.77;21.00;;;4.10;99.90;;;;;;5148472;27;20201;-58
2021/11/18 06:51:44;;;;;;;52.37;20.40;;;4.10;99.90;;;;;;5153895;27;20671;-58
2021/11/18 06:54:14;;;;;;;53.00;19.57;;;4.10;99.90;;;;;;5148431;27;20196;-59
2021/11/18 06:56:42;;;;;;;51.13;19.03;;;4.10;99.90;;;;;;5146643;27;20574;-58
2021/11/18 06:59:13;;;;;;;53.70;18.77;;;4.10;99.90;;;;;;5147413;27;20221;-58
2021/11/18 07:01:43;;;;;;;58.00;18.93;;;4.10;99.90;;;;;;5150400;27;20659;-58
2021/11/18 07:04:12;;;;;;;49.50;19.17;;;4.10;99.90;;;;;;5147990;27;20715;-58
2021/11/18 07:06:41;;;;;;;51.80;19.37;;;4.10;99.90;;;;;;5143823;27;20253;-58
2021/11/18 07:09:11;;;;;;;47.73;18.87;;;4.10;99.90;;;;;;5129002;27;20208;-58
2021/11/18 07:11:40;;;;;;;56.10;18.50;;;4.10;99.90;;;;;;5138283;27;20235;-59
2021/11/18 07:14:13;;;;;;;49.80;18.47;;;4.10;99.90;;;;;;5137352;27;20205;-59
2021/11/18 07:16:41;;;;;;;53.57;19.23;;;4.10;99.90;;;;;;5160298;27;20189;-57
2021/11/18 07:19:09;;;;;;;49.03;17.97;;;4.10;99.90;;;;;;5153605;27;20202;-59
2021/11/18 07:21:38;;;;;;;43.17;17.90;;;4.10;99.90;;;;;;5153543;27;20190;-58
2021/11/18 07:24:08;;;;;;;49.37;18.37;;;4.20;99.90;;;;;;5152760;27;20186;-59
2021/11/18 07:26:38;;;;;;;54.23;18.97;;;4.20;99.90;;;;;;5153087;27;20205;-59
2021/11/18 07:29:07;;;;;;;49.37;18.00;;;4.20;99.90;;;;;;5152355;27;20216;-58
2021/11/18 07:31:38;;;;;;;52.10;18.37;;;4.30;99.90;;;;;;5152998;27;20213;-59
2021/11/18 07:34:10;;;;;;;52.97;17.97;;;4.30;99.90;;;;;;5146913;27;20682;-59
2021/11/18 07:36:41;;;;;;;45.23;15.87;;;4.30;99.90;;;;;;5152969;27;20288;-59
2021/11/18 07:39:09;;;;;;;50.50;17.50;;;4.30;99.90;;;;;;5130366;27;20198;-59
2021/11/18 07:41:40;;;;;;;46.40;17.30;;;4.40;99.90;;;;;;5127351;27;20182;-58
2021/11/18 07:44:14;;;;;;;47.50;16.27;;;4.40;99.90;;;;;;5146968;27;20232;-59
2021/11/18 07:47:00;;;;;;;39.83;16.73;;;4.40;99.90;;;;;;5144874;27;20193;-59
2021/11/18 07:49:29;;;;;;;43.77;17.00;;;4.40;99.90;;;;;;5151106;27;20193;-59
2021/11/18 07:51:58;;;;;;;45.90;15.87;;;4.50;99.90;;;;;;5110698;27;20217;-59
2021/11/18 07:54:27;;;;;;;39.50;15.83;;;4.50;99.90;;;;;;5144469;27;20192;-57
2021/11/18 07:56:55;;;;;;;46.70;15.93;;;4.60;99.90;;;;;;5133906;27;20253;-58
2021/11/18 07:59:27;;;;;;;53.47;16.57;;;4.70;99.90;;;;;;5149754;27;20201;-58
2021/11/18 08:01:57;;;;;;;44.10;16.33;;;4.70;99.90;;;;;;5147908;27;20196;-58
2021/11/18 08:04:28;;;;;;;47.10;16.07;;;4.80;99.90;;;;;;5150541;27;20242;-59
2021/11/18 08:06:59;;;;;;;48.33;16.37;;;4.80;99.90;;;;;;5149341;27;20241;-58
2021/11/18 08:09:28;;;;;;;47.00;16.47;;;4.80;99.90;;;;;;5150932;27;20194;-58
2021/11/18 08:11:59;;;;;;;44.80;15.03;;;4.90;99.90;;;;;;5133328;27;20300;-59
2021/11/18 08:14:28;;;;;;;39.63;15.90;;;4.90;99.90;;;;;;5153908;27;20197;-57
2021/11/18 08:16:57;;;;;;;41.57;15.73;;;5.00;99.90;;;;;;5133574;27;20296;-59
2021/11/18 08:19:26;;;;;;;41.10;16.07;;;5.00;99.90;;;;;;5155008;27;20216;-59
2021/11/18 08:21:58;;;;;;;39.17;14.93;;;5.10;99.90;;;;;;5149690;27;20469;-59
2021/11/18 08:24:28;;;;;;;40.03;16.37;;;5.10;99.90;;;;;;5143980;27;20236;-59
2021/11/18 08:26:57;;;;;;;56.13;23.03;;;5.10;99.90;;;;;;5149215;27;20185;-59
2021/11/18 08:29:29;;;;;;;46.87;19.33;;;5.20;99.90;;;;;;5145024;27;20194;-59
2021/11/18 08:31:57;;;;;;;48.83;24.60;;;5.30;99.90;;;;;;5159463;27;20225;-59
2021/11/18 08:34:28;;;;;;;58.97;19.00;;;5.30;99.90;;;;;;5152816;27;20192;-58
2021/11/18 08:36:58;;;;;;;49.40;16.97;;;5.50;99.90;;;;;;5140207;27;20190;-59
2021/11/18 08:39:28;;;;;;;40.73;15.53;;;5.50;99.90;;;;;;5149466;27;20224;-59
2021/11/18 08:42:00;;;;;;;49.50;15.23;;;5.60;99.90;;;;;;5141546;27;20196;-59
2021/11/18 08:44:31;;;;;;;39.80;16.93;;;5.70;99.90;;;;;;5146588;27;20225;-60
2021/11/18 08:47:02;;;;;;;39.83;16.07;;;5.90;99.90;;;;;;5132160;27;20667;-59
2021/11/18 08:49:31;;;;;;;34.10;13.43;;;6.00;99.90;;;;;;5156246;27;20204;-59
2021/11/18 08:52:06;;;;;;;34.00;13.73;;;5.90;99.90;;;;;;5146816;27;20217;-59
2021/11/18 08:54:35;;;;;;;38.67;14.67;;;6.00;99.90;;;;;;5151402;27;20240;-59
2021/11/18 08:57:05;;;;;;;34.63;13.60;;;6.00;99.90;;;;;;5147965;27;20201;-59
2021/11/18 08:59:34;;;;;;;38.80;13.63;;;6.10;99.90;;;;;;5153269;27;20591;-59
2021/11/18 09:02:12;;;;;;;39.23;13.47;;;6.20;99.90;;;;;;5148706;27;20876;-59
2021/11/18 09:04:41;;;;;;;32.17;13.13;;;6.40;99.90;;;;;;5157586;27;20196;-59
2021/11/18 09:07:10;;;;;;;36.33;12.60;;;6.50;99.90;;;;;;5155437;27;20202;-60
2021/11/18 09:09:39;;;;;;;39.50;12.43;;;6.60;99.90;;;;;;5156664;27;20192;-59
2021/11/18 09:12:09;;;;;;;31.87;11.73;;;6.80;99.90;;;;;;5158414;27;20197;-59
2021/11/18 09:14:39;;;;;;;31.97;12.50;;;6.90;99.90;;;;;;5136637;27;20288;-58
2021/11/18 09:17:13;;;;;;;36.83;12.33;;;7.10;99.90;;;;;;5151287;27;20201;-59
2021/11/18 09:19:43;;;;;;;28.57;13.37;;;7.20;99.90;;;;;;5155701;27;20253;-59
2021/11/18 09:22:14;;;;;;;37.87;12.37;;;7.40;99.90;;;;;;5152065;27;20198;-59
2021/11/18 09:24:46;;;;;;;34.73;11.73;;;7.50;99.90;;;;;;5146719;27;20257;-59
2021/11/18 09:27:17;;;;;;;30.47;12.33;;;7.60;99.90;;;;;;5142143;27;20772;-59
2021/11/18 09:29:50;;;;;;;32.10;11.63;;;7.60;99.90;;;;;;5144374;27;20290;-56
2021/11/18 09:32:18;;;;;;;31.43;10.97;;;7.70;99.90;;;;;;5126625;27;20700;-59
2021/11/18 09:34:47;;;;;;;27.97;10.20;;;7.70;99.90;;;;;;5152755;27;20246;-59
2021/11/18 09:37:16;;;;;;;28.33;9.80;;;7.70;99.90;;;;;;5149728;27;20276;-59
2021/11/18 09:39:45;;;;;;;26.60;9.73;;;7.70;99.90;;;;;;5135219;27;20196;-58
2021/11/18 09:42:16;;;;;;;28.73;10.27;;;7.80;99.90;;;;;;5154093;27;20193;-57
2021/11/18 09:45:13;;;;;;;20.90;10.67;;;7.80;99.90;;;;;;5127496;27;20226;-59
2021/11/18 09:48:13;;;;;;;23.40;10.87;;;7.90;99.90;;;;;;5141386;27;20242;-59
2021/11/18 09:50:51;;;;;;;28.20;10.97;;;8.00;99.90;;;;;;5155031;27;20735;-59
2021/11/18 09:53:32;;;;;;;30.43;10.10;;;8.20;99.90;;;;;;5152444;27;20241;-58
2021/11/18 09:56:09;;;;;;;25.07;10.43;;;8.30;99.90;;;;;;5142108;27;20309;-58
2021/11/18 09:59:05;;;;;;;23.83;10.57;;;8.50;99.90;;;;;;5153553;27;20204;-59
2021/11/18 10:01:53;;;;;;;21.07;9.57;;;8.70;99.90;;;;;;5127478;27;20198;-58
2021/11/18 10:04:29;;;;;;;31.47;10.07;;;8.80;99.90;;;;;;5147032;27;20755;-58
2021/11/18 10:07:02;;;;;;;22.57;9.40;;;8.80;99.90;;;;;;5155284;27;20193;-58
2021/11/18 10:09:39;;;;;;;25.70;9.10;;;9.00;99.90;;;;;;5132079;27;20201;-58
2021/11/18 10:12:20;;;;;;;37.37;22.70;;;9.10;99.90;;;;;;5152903;27;20203;-59
2021/11/18 10:14:59;;;;;;;29.23;10.10;;;9.10;99.90;;;;;;5150037;27;20221;-59
2021/11/18 10:17:31;;;;;;;28.83;12.97;;;9.20;99.90;;;;;;5164876;27;20201;-59
2021/11/18 10:20:05;;;;;;;27.60;11.47;;;9.30;99.90;;;;;;5136156;27;20273;-59
2021/11/18 10:22:36;;;;;;;27.10;12.97;;;9.40;99.90;;;;;;5137542;27;20193;-59
2021/11/18 10:25:10;;;;;;;29.33;15.07;;;9.50;99.90;;;;;;5155567;27;20288;-58
2021/11/18 10:27:42;;;;;;;25.17;9.70;;;9.60;99.90;;;;;;5150065;27;20205;-59
2021/11/18 10:30:19;;;;;;;24.90;9.40;;;9.70;99.90;;;;;;5131203;27;20189;-59
2021/11/18 10:33:04;;;;;;;24.70;9.30;;;9.70;99.90;;;;;;5155940;27;20279;-58
2021/11/18 10:35:39;;;;;;;30.50;12.60;;;9.80;99.90;;;;;;5151985;27;20663;-58
2021/11/18 10:38:25;;;;;;;22.53;8.90;;;10.00;99.90;;;;;;5155826;27;20235;-58
2021/11/18 10:41:00;;;;;;;31.47;12.03;;;10.20;99.90;;;;;;5153393;27;20672;-59
2021/11/18 10:43:31;;;;;;;26.07;11.27;;;10.30;99.90;;;;;;5143074;27;20312;-58
2021/11/18 10:46:12;;;;;;;28.17;14.07;;;10.40;99.90;;;;;;5155483;27;20193;-58
2021/11/18 10:48:48;;;;;;;24.77;9.57;;;10.50;99.90;;;;;;5159312;27;20201;-59
2021/11/18 10:51:31;;;;;;;28.60;11.60;;;10.70;99.90;;;;;;5135661;27;20186;-58
2021/11/18 10:54:03;;;;;;;28.40;9.70;;;10.80;99.90;;;;;;5152798;27;20209;-59
2021/11/18 10:56:50;;;;;;;30.17;11.80;;;10.90;99.90;;;;;;5144026;27;20729;-59
2021/11/18 10:59:32;;;;;;;27.70;12.07;;;11.00;99.90;;;;;;5122665;27;20262;-59
2021/11/18 11:02:01;;;;;;;25.43;10.20;;;11.20;99.90;;;;;;5159399;27;20652;-59
2021/11/18 11:04:36;;;;;;;23.23;10.33;;;11.20;99.90;;;;;;5130196;27;20193;-59
2021/11/18 11:07:05;;;;;;;24.77;10.03;;;11.20;99.90;;;;;;5141355;27;20181;-58
2021/11/18 11:09:36;;;;;;;23.27;10.17;;;11.20;99.90;;;;;;5149720;27;20200;-58
2021/11/18 11:12:16;;;;;;;23.83;11.53;;;11.30;99.90;;;;;;5125339;27;20259;-59
2021/11/18 11:15:15;;;;;;;29.10;9.90;;;11.40;99.90;;;;;;5148309;27;20201;-58
2021/11/18 11:18:04;;;;;;;18.03;7.73;;;11.50;99.90;;;;;;5149682;27;20225;-59
2021/11/18 11:20:46;;;;;;;18.33;8.33;;;11.50;99.90;;;;;;5126481;27;20192;-60
2021/11/18 11:23:22;;;;;;;17.33;8.60;;;11.60;99.90;;;;;;5144930;27;20189;-59
2021/11/18 11:26:26;;;;;;;26.33;9.33;;;11.70;99.90;;;;;;5147048;27;20189;-57
2021/11/18 11:29:24;;;;;;;23.53;8.63;;;11.70;99.90;;;;;;5144745;27;20196;-59
2021/11/18 11:32:03;;;;;;;21.07;9.40;;;11.80;99.90;;;;;;5155882;27;20200;-59
2021/11/18 11:34:58;;;;;;;21.57;8.17;;;11.80;99.90;;;;;;5144792;27;20212;-58
2021/11/18 11:37:51;;;;;;;20.20;8.17;;;11.90;99.90;;;;;;5156072;27;20213;-58
2021/11/18 11:40:34;;;;;;;19.00;8.03;;;11.90;99.90;;;;;;5148153;27;20290;-59
2021/11/18 11:43:27;;;;;;;30.83;9.27;;;12.10;99.90;;;;;;5146284;27;20225;-59
2021/11/18 11:46:07;;;;;;;24.33;7.80;;;12.20;99.90;;;;;;5140152;27;20205;-59
2021/11/18 11:49:11;;;;;;;18.73;7.50;;;12.40;99.90;;;;;;5145835;27;20193;-59
2021/11/18 11:52:18;;;;;;;16.77;7.10;;;12.50;99.90;;;;;;5133112;27;20205;-59
2021/11/18 11:55:17;;;;;;;23.57;7.83;;;12.50;99.90;;;;;;5147935;27;20197;-60
2021/11/18 11:57:50;;;;;;;19.93;8.00;;;12.50;99.90;;;;;;5145203;27;20610;-58
2021/11/18 12:00:26;;;;;;;18.23;7.70;;;12.60;99.90;;;;;;5142782;27;20556;-58
2021/11/18 12:03:37;;;;;;;22.93;7.30;;;12.70;99.90;;;;;;5146164;27;20334;-59
2021/11/18 12:06:12;;;;;;;18.47;7.23;;;12.60;99.90;;;;;;5131410;27;20193;-59
2021/11/18 12:08:56;;;;;;;30.87;7.57;;;12.70;99.90;;;;;;5163380;27;20184;-59
2021/11/18 12:11:46;;;;;;;24.87;8.13;;;12.60;99.90;;;;;;5132848;27;20650;-58
2021/11/18 12:14:26;;;;;;;22.63;7.93;;;12.70;99.90;;;;;;5161275;27;20214;-58
2021/11/18 12:16:59;;;;;;;19.87;7.27;;;12.80;99.90;;;;;;5153435;27;20227;-59
2021/11/18 12:19:41;;;;;;;21.70;7.43;;;12.80;99.90;;;;;;5135403;27;20624;-60
2021/11/18 12:22:33;;;;;;;25.03;6.67;;;12.70;99.90;;;;;;5146865;27;20196;-59
2021/11/18 12:25:29;;;;;;;23.47;7.57;;;12.70;99.90;;;;;;5152696;27;20595;-59
2021/11/18 12:28:02;;;;;;;19.60;7.20;;;12.80;99.90;;;;;;5157513;27;20209;-59
2021/11/18 12:31:13;;;;;;;23.13;7.03;;;12.80;99.90;;;;;;5148664;27;20332;-59
2021/11/18 12:33:54;;;;;;;23.50;7.03;;;12.80;99.90;;;;;;5109002;27;20209;-59
2021/11/18 12:36:48;;;;;;;19.90;7.60;;;13.00;99.90;;;;;;5127032;27;20279;-58
2021/11/18 12:39:33;;;;;;;21.83;7.03;;;13.10;99.90;;;;;;5149805;27;20683;-59
2021/11/18 12:42:39;;;;;;;27.87;7.10;;;13.10;99.90;;;;;;5134124;27;20963;-59
2021/11/18 12:45:31;;;;;;;20.57;7.23;;;13.20;99.90;;;;;;5159202;27;20441;-59
2021/11/18 12:48:13;;;;;;;18.60;7.90;;;13.10;99.90;;;;;;5155422;27;20723;-59
2021/11/18 12:51:15;;;;;;;24.93;7.33;;;13.00;99.90;;;;;;5147325;27;20708;-59
2021/11/18 12:53:46;;;;;;;30.17;7.17;;;12.90;99.90;;;;;;5140351;27;20201;-59
2021/11/18 12:56:53;;;;;;;31.80;12.00;;;12.90;99.90;;;;;;5154299;27;20220;-59
2021/11/18 12:59:51;;;;;;;32.40;13.97;;;13.00;99.90;;;;;;5153512;27;20263;-59
2021/11/18 13:02:51;;;;;;;18.50;8.40;;;13.10;99.90;;;;;;5151470;27;20221;-59
2021/11/18 13:05:53;;;;;;;18.93;6.57;;;13.00;99.90;;;;;;5156679;27;20618;-59
2021/11/18 13:08:55;;;;;;;23.80;7.87;;;13.00;99.90;;;;;;5150242;27;20579;-59